createdAt,value
2023-06-16T00:00:49.611Z,8.10
2023-06-16T00:03:18.643Z,5.33
2023-06-16T00:05:47.471Z,8.50
2023-06-16T00:08:17.829Z,4.20
2023-06-16T00:10:46.169Z,6.17
2023-06-16T00:13:14.440Z,3.60
2023-06-16T00:15:42.700Z,3.93
2023-06-16T00:18:11.350Z,4.77
2023-06-16T00:20:39.641Z,4.17
2023-06-16T00:23:09.702Z,6.17
2023-06-16T00:25:39.502Z,3.93
2023-06-16T00:28:07.763Z,6.00
2023-06-16T00:30:35.976Z,3.70
2023-06-16T00:33:04.451Z,5.13
2023-06-16T00:35:33.198Z,4.23
2023-06-16T00:38:01.459Z,4.83
2023-06-16T00:40:30.123Z,4.60
2023-06-16T00:43:03.031Z,6.90
2023-06-16T00:45:31.555Z,4.37
2023-06-16T00:48:01.611Z,6.47
2023-06-16T00:50:30.278Z,4.10
2023-06-16T00:52:59.369Z,3.77
2023-06-16T00:55:27.849Z,4.47
2023-06-16T00:57:56.205Z,3.90
2023-06-16T01:00:27.064Z,5.97
2023-06-16T01:02:58.111Z,4.43
2023-06-16T01:05:28.457Z,4.43
2023-06-16T01:08:12.550Z,5.90
2023-06-16T01:10:55.126Z,5.13
2023-06-16T01:13:33.467Z,5.67
2023-06-16T01:16:05.326Z,4.40
2023-06-16T01:18:35.279Z,5.87
2023-06-16T01:21:17.603Z,7.57
2023-06-16T01:24:04.308Z,4.50
2023-06-16T01:26:33.898Z,5.40
2023-06-16T01:29:06.875Z,7.37
2023-06-16T01:31:37.566Z,8.20
2023-06-16T01:34:09.961Z,7.37
2023-06-16T01:36:41.939Z,7.60
2023-06-16T01:39:12.661Z,4.27
2023-06-16T01:41:41.894Z,5.43
2023-06-16T01:44:11.094Z,4.47
2023-06-16T01:46:40.298Z,6.97
2023-06-16T01:49:09.650Z,4.63
2023-06-16T01:51:38.526Z,5.30
2023-06-16T01:54:08.613Z,4.03
2023-06-16T01:56:38.329Z,5.60
2023-06-16T01:59:06.894Z,5.43
2023-06-16T02:01:42.646Z,5.97
2023-06-16T02:04:16.827Z,5.70
2023-06-16T02:06:49.854Z,5.63
2023-06-16T02:09:24.491Z,4.90
2023-06-16T02:11:55.535Z,6.70
2023-06-16T02:14:24.187Z,4.73
2023-06-16T02:16:53.600Z,3.33
2023-06-16T02:19:22.323Z,4.23
2023-06-16T02:21:50.579Z,4.50
2023-06-16T02:24:20.077Z,4.53
2023-06-16T02:26:50.356Z,6.33
2023-06-16T02:29:21.706Z,4.27
2023-06-16T02:31:51.107Z,4.73
2023-06-16T02:34:20.066Z,7.93
2023-06-16T02:36:51.496Z,4.37
2023-06-16T02:39:22.934Z,4.93
2023-06-16T02:41:51.484Z,6.90
2023-06-16T02:44:22.181Z,4.60
2023-06-16T02:46:50.498Z,4.97
2023-06-16T02:49:20.305Z,6.27
2023-06-16T02:51:48.700Z,3.83
2023-06-16T02:54:17.002Z,5.33
2023-06-16T02:56:45.373Z,4.37
2023-06-16T02:59:14.132Z,4.07
2023-06-16T03:01:43.777Z,5.43
2023-06-16T03:04:26.989Z,4.13
2023-06-16T03:06:59.817Z,3.97
2023-06-16T03:09:33.638Z,3.67
2023-06-16T03:12:02.547Z,4.00
2023-06-16T03:14:34.141Z,4.63
2023-06-16T03:17:15.019Z,4.97
2023-06-16T03:19:44.492Z,3.77
2023-06-16T03:22:15.134Z,5.53
2023-06-16T03:24:45.980Z,4.23
2023-06-16T03:27:16.549Z,6.53
2023-06-16T03:29:52.145Z,3.80
2023-06-16T03:32:22.587Z,3.87
2023-06-16T03:34:51.194Z,5.97
2023-06-16T03:37:22.008Z,3.87
2023-06-16T03:39:50.334Z,5.80
2023-06-16T03:42:18.699Z,4.83
2023-06-16T03:44:48.463Z,5.07
2023-06-16T03:47:17.469Z,4.77
2023-06-16T03:49:47.293Z,4.83
2023-06-16T03:52:15.596Z,5.17
2023-06-16T03:54:43.908Z,5.77
2023-06-16T03:57:12.265Z,5.03
2023-06-16T03:59:41.331Z,5.77
2023-06-16T04:02:09.694Z,4.10
2023-06-16T04:04:48.596Z,3.83
2023-06-16T04:07:23.781Z,3.83
2023-06-16T04:09:54.038Z,5.87
2023-06-16T04:12:22.739Z,4.23
2023-06-16T04:14:51.031Z,4.50
2023-06-16T04:17:20.407Z,7.13
2023-06-16T04:19:50.504Z,4.33
2023-06-16T04:22:18.820Z,6.17
2023-06-16T04:24:51.964Z,4.20
2023-06-16T04:27:24.531Z,5.63
2023-06-16T04:29:54.118Z,4.83
2023-06-16T04:32:22.640Z,4.93
2023-06-16T04:34:55.648Z,5.80
2023-06-16T04:37:25.155Z,6.67
2023-06-16T04:39:53.385Z,5.97
2023-06-16T04:42:24.644Z,5.47
2023-06-16T04:44:53.453Z,10.60
2023-06-16T04:47:23.677Z,5.97
2023-06-16T04:49:53.938Z,8.77
2023-06-16T04:52:22.827Z,6.70
2023-06-16T04:54:51.158Z,6.50
2023-06-16T04:57:19.521Z,6.43
2023-06-16T04:59:47.944Z,5.93
2023-06-16T05:02:16.643Z,6.77
2023-06-16T05:04:45.233Z,5.83
2023-06-16T05:07:17.225Z,6.63
2023-06-16T05:09:49.319Z,6.63
2023-06-16T05:12:17.601Z,7.37
2023-06-16T05:14:46.607Z,9.03
2023-06-16T05:17:15.626Z,7.17
2023-06-16T05:19:44.431Z,8.33
2023-06-16T05:22:12.791Z,7.60
2023-06-16T05:24:42.944Z,10.60
2023-06-16T05:27:11.664Z,10.73
2023-06-16T05:29:39.970Z,13.80
2023-06-16T05:32:08.758Z,10.30
2023-06-16T05:34:37.541Z,8.33
2023-06-16T05:37:07.499Z,13.17
2023-06-16T05:39:36.251Z,7.47
2023-06-16T05:42:06.860Z,8.27
2023-06-16T05:44:35.163Z,14.55
2023-06-16T05:47:03.719Z,12.15
2023-06-16T05:49:32.036Z,11.02
2023-06-16T05:52:03.002Z,10.07
2023-06-16T05:54:31.348Z,7.63
2023-06-16T05:57:01.377Z,10.35
2023-06-16T05:59:32.167Z,15.13
2023-06-16T06:02:00.507Z,21.70
2023-06-16T06:04:54.787Z,20.98
2023-06-16T06:07:24.500Z,20.73
2023-06-16T06:09:53.014Z,17.92
2023-06-16T06:12:22.265Z,17.10
2023-06-16T06:14:52.087Z,14.57
2023-06-16T06:17:21.006Z,13.90
2023-06-16T06:19:50.802Z,12.88
2023-06-16T06:22:19.126Z,13.73
2023-06-16T06:24:48.619Z,16.08
2023-06-16T06:27:18.036Z,16.02
2023-06-16T06:29:46.342Z,14.65
2023-06-16T06:32:16.175Z,11.25
2023-06-16T06:34:44.447Z,10.57
2023-06-16T06:37:17.465Z,8.00
2023-06-16T06:39:46.603Z,14.20
2023-06-16T06:42:16.275Z,9.52
2023-06-16T06:44:57.272Z,9.57
2023-06-16T06:47:27.871Z,8.98
2023-06-16T06:50:03.370Z,12.43
2023-06-16T06:52:31.702Z,8.02
2023-06-16T06:54:59.949Z,8.38
2023-06-16T06:57:28.247Z,12.00
2023-06-16T06:59:56.484Z,11.02
2023-06-16T07:02:25.496Z,9.00
2023-06-16T07:04:55.542Z,6.82
2023-06-16T07:07:23.775Z,11.68
2023-06-16T07:09:52.100Z,11.48
2023-06-16T07:12:20.394Z,10.60
2023-06-16T07:14:50.382Z,8.20
2023-06-16T07:17:21.211Z,12.70
2023-06-16T07:19:49.448Z,5.65
2023-06-16T07:22:20.197Z,8.90
2023-06-16T07:24:48.411Z,7.55
2023-06-16T07:27:16.726Z,6.93
2023-06-16T07:29:44.952Z,9.68
2023-06-16T07:32:13.163Z,7.22
2023-06-16T07:34:42.921Z,10.70
2023-06-16T07:37:11.233Z,12.10
2023-06-16T07:39:41.100Z,16.02
2023-06-16T07:42:09.691Z,13.27
2023-06-16T07:44:37.999Z,16.05
2023-06-16T07:47:09.668Z,8.20
2023-06-16T07:49:39.485Z,8.38
2023-06-16T07:52:10.664Z,7.45
2023-06-16T07:54:42.035Z,9.38
2023-06-16T07:57:10.467Z,8.50
2023-06-16T07:59:38.747Z,8.93
2023-06-16T08:02:13.151Z,7.63
2023-06-16T08:07:33.607Z,9.65
2023-06-16T08:10:03.956Z,7.55
2023-06-16T08:12:33.353Z,8.13
2023-06-16T08:15:01.715Z,10.95
2023-06-16T08:17:30.067Z,6.88
2023-06-16T08:19:58.336Z,8.00
2023-06-16T08:22:26.813Z,14.13
2023-06-16T08:24:55.152Z,6.80
2023-06-16T08:27:26.185Z,4.38
2023-06-16T08:29:55.007Z,6.68
2023-06-16T08:32:23.925Z,8.98
2023-06-16T08:34:52.396Z,5.47
2023-06-16T08:37:28.760Z,3.90
2023-06-16T08:39:57.762Z,5.82
2023-06-16T08:42:27.647Z,5.70
2023-06-16T08:44:56.453Z,7.28
2023-06-16T08:47:25.187Z,7.93
2023-06-16T08:49:55.865Z,6.05
2023-06-16T08:52:38.825Z,5.60
2023-06-16T08:55:14.809Z,4.53
2023-06-16T08:57:49.171Z,5.47
2023-06-16T09:00:20.059Z,8.32
2023-06-16T09:02:51.695Z,5.13
2023-06-16T09:05:21.841Z,6.25
2023-06-16T09:07:52.338Z,8.48
2023-06-16T09:10:21.580Z,7.32
2023-06-16T09:12:55.369Z,4.80
2023-06-16T09:15:25.659Z,6.60
2023-06-16T09:17:54.066Z,4.45
2023-06-16T09:20:25.008Z,5.20
2023-06-16T09:23:00.698Z,4.07
2023-06-16T09:25:33.433Z,7.28
2023-06-16T09:28:09.206Z,8.95
2023-06-16T09:30:40.204Z,7.32
2023-06-16T09:33:12.400Z,8.70
2023-06-16T09:35:44.332Z,9.30
2023-06-16T09:38:13.069Z,4.75
2023-06-16T09:40:41.570Z,13.13
2023-06-16T09:43:12.723Z,6.25
2023-06-16T09:45:41.076Z,6.47
2023-06-16T09:48:13.634Z,10.68
2023-06-16T09:50:42.691Z,7.72
2023-06-16T09:53:11.910Z,6.85
2023-06-16T09:55:42.470Z,6.00
2023-06-16T09:58:12.170Z,4.70
2023-06-16T10:00:40.658Z,4.03
2023-06-16T10:03:11.204Z,13.10
2023-06-16T10:05:42.476Z,5.00
2023-06-16T10:08:13.606Z,5.95
2023-06-16T10:10:45.197Z,5.70
2023-06-16T10:13:17.159Z,6.03
2023-06-16T10:15:47.940Z,5.28
2023-06-16T10:18:19.031Z,8.95
2023-06-16T10:20:48.418Z,4.70
2023-06-16T10:23:17.394Z,4.93
2023-06-16T10:25:46.996Z,8.10
2023-06-16T10:28:17.193Z,7.13
2023-06-16T10:30:46.143Z,4.72
2023-06-16T10:33:19.370Z,6.07
2023-06-16T10:36:11.583Z,5.07
2023-06-16T10:38:43.858Z,4.03
2023-06-16T10:41:16.243Z,4.75
2023-06-16T10:43:46.260Z,4.13
2023-06-16T10:46:15.985Z,5.43
2023-06-16T10:49:13.295Z,5.28
2023-06-16T10:51:50.802Z,6.07
2023-06-16T10:54:37.413Z,4.72
2023-06-16T10:57:14.720Z,4.43
2023-06-16T10:59:59.070Z,7.43
2023-06-16T11:02:29.155Z,6.72
2023-06-16T11:05:15.107Z,8.82
2023-06-16T11:07:44.527Z,7.07
2023-06-16T11:10:18.654Z,4.45
2023-06-16T11:12:47.551Z,8.57
2023-06-16T11:15:17.294Z,5.72
2023-06-16T11:17:46.099Z,3.85
2023-06-16T11:20:15.581Z,4.78
2023-06-16T11:22:44.976Z,4.65
2023-06-16T11:25:14.273Z,4.05
2023-06-16T11:27:42.728Z,4.95
2023-06-16T11:30:13.085Z,4.53
2023-06-16T11:32:43.712Z,6.32
2023-06-16T11:35:12.421Z,7.20
2023-06-16T11:37:50.126Z,6.90
2023-06-16T11:40:22.407Z,6.50
2023-06-16T11:42:59.026Z,6.00
2023-06-16T11:45:29.755Z,5.45
2023-06-16T11:48:02.089Z,5.15
2023-06-16T11:50:30.740Z,6.28
2023-06-16T11:52:59.790Z,5.10
2023-06-16T11:55:29.970Z,7.63
2023-06-16T11:57:59.850Z,7.03
2023-06-16T12:00:29.055Z,6.28
2023-06-16T12:02:59.087Z,9.07
2023-06-16T12:05:29.587Z,9.93
2023-06-16T12:07:58.093Z,5.97
2023-06-16T12:10:27.445Z,9.80
2023-06-16T12:12:56.371Z,3.67
2023-06-16T12:15:25.550Z,4.30
2023-06-16T12:17:58.968Z,4.57
2023-06-16T12:20:27.485Z,7.50
2023-06-16T12:22:58.813Z,5.07
2023-06-16T12:25:28.266Z,4.75
2023-06-16T12:28:00.214Z,6.82
2023-06-16T12:30:37.782Z,3.85
2023-06-16T12:33:11.364Z,5.20
2023-06-16T12:35:39.901Z,5.88
2023-06-16T12:38:08.279Z,8.20
2023-06-16T12:40:37.066Z,8.93
2023-06-16T12:43:24.911Z,4.22
2023-06-16T12:45:53.783Z,8.32
2023-06-16T12:48:23.583Z,4.93
2023-06-16T12:50:51.988Z,4.20
2023-06-16T12:53:20.285Z,4.50
2023-06-16T12:55:48.553Z,4.35
2023-06-16T12:58:16.813Z,6.25
2023-06-16T13:00:45.096Z,5.05
2023-06-16T13:03:15.709Z,4.45
2023-06-16T13:05:45.824Z,6.72
2023-06-16T13:08:14.467Z,4.88
2023-06-16T13:10:42.671Z,6.75
2023-06-16T13:13:10.945Z,6.05
2023-06-16T13:15:39.245Z,6.03
2023-06-16T13:18:08.451Z,4.35
2023-06-16T13:20:40.542Z,3.78
2023-06-16T13:23:10.188Z,6.47
2023-06-16T13:25:38.453Z,5.80
2023-06-16T13:28:07.176Z,6.30
2023-06-16T13:30:36.064Z,7.18
2023-06-16T13:33:05.000Z,5.15
2023-06-16T13:35:33.313Z,4.07
2023-06-16T13:38:01.676Z,8.05
2023-06-16T13:40:31.311Z,4.70
2023-06-16T13:43:00.995Z,4.72
2023-06-16T13:45:34.857Z,5.10
2023-06-16T13:48:03.146Z,5.78
2023-06-16T13:50:31.446Z,5.72
2023-06-16T13:52:59.723Z,4.90
2023-06-16T13:55:28.041Z,7.18
2023-06-16T13:57:58.224Z,7.47
2023-06-16T14:00:26.519Z,4.95
2023-06-16T14:02:56.151Z,8.70
2023-06-16T14:05:24.923Z,5.20
2023-06-16T14:07:53.521Z,6.53
2023-06-16T14:10:22.169Z,5.18
2023-06-16T14:12:50.596Z,4.32
2023-06-16T14:15:20.729Z,5.25
2023-06-16T14:17:49.673Z,6.13
2023-06-16T14:20:18.909Z,3.55
2023-06-16T14:22:47.955Z,6.07
2023-06-16T14:25:16.596Z,3.30
2023-06-16T14:27:45.706Z,3.63
2023-06-16T14:30:14.747Z,5.15
2023-06-16T14:32:44.435Z,4.72
2023-06-16T14:35:12.974Z,3.42
2023-06-16T14:37:41.223Z,3.90
2023-06-16T14:40:10.887Z,3.95
2023-06-16T14:42:39.415Z,4.47
2023-06-16T14:45:10.619Z,5.28
2023-06-16T14:47:39.485Z,4.70
2023-06-16T14:50:11.005Z,3.28
2023-06-16T14:52:39.300Z,4.47
2023-06-16T14:55:08.406Z,3.25
2023-06-16T14:57:36.761Z,4.40
2023-06-16T15:00:07.131Z,5.15
2023-06-16T15:02:35.926Z,3.85
2023-06-16T15:05:04.523Z,4.30
2023-06-16T15:07:34.252Z,3.83
2023-06-16T15:10:02.514Z,4.82
2023-06-16T15:12:30.982Z,3.85
2023-06-16T15:14:59.272Z,2.97
2023-06-16T15:17:27.506Z,3.80
2023-06-16T15:19:55.852Z,6.68
2023-06-16T15:22:24.104Z,3.47
2023-06-16T15:24:53.774Z,4.40
2023-06-16T15:27:21.997Z,4.28
2023-06-16T15:29:50.238Z,5.38
2023-06-16T15:32:18.550Z,3.90
2023-06-16T15:34:46.808Z,4.45
2023-06-16T15:37:15.169Z,6.88
2023-06-16T15:39:43.395Z,3.55
2023-06-16T15:42:13.155Z,4.82
2023-06-16T15:44:42.038Z,4.30
2023-06-16T15:47:10.464Z,4.18
2023-06-16T15:49:38.738Z,3.42
2023-06-16T15:52:08.774Z,5.22
2023-06-16T15:54:37.024Z,4.53
2023-06-16T15:57:08.485Z,4.25
2023-06-16T15:59:38.990Z,3.70
2023-06-16T16:02:09.187Z,5.13
2023-06-16T16:04:43.639Z,6.05
2023-06-16T16:07:12.436Z,7.57
2023-06-16T16:09:40.835Z,3.53
2023-06-16T16:12:11.592Z,4.38
2023-06-16T16:14:41.676Z,2.72
2023-06-16T16:17:10.029Z,3.55
2023-06-16T16:19:38.307Z,4.93
2023-06-16T16:22:07.940Z,4.03
2023-06-16T16:24:36.282Z,6.47
2023-06-16T16:27:07.025Z,3.95
2023-06-16T16:29:40.769Z,3.30
2023-06-16T16:32:09.539Z,3.88
2023-06-16T16:34:37.883Z,4.68
2023-06-16T16:37:07.000Z,3.95
2023-06-16T16:39:35.784Z,4.10
2023-06-16T16:42:04.607Z,4.70
2023-06-16T16:44:33.097Z,5.40
2023-06-16T16:47:04.315Z,3.85
2023-06-16T16:49:32.775Z,6.47
2023-06-16T16:52:01.651Z,5.03
2023-06-16T16:54:29.896Z,3.75
2023-06-16T16:56:58.128Z,4.25
2023-06-16T16:59:27.106Z,3.72
2023-06-16T17:01:55.500Z,2.83
2023-06-16T17:04:25.295Z,5.07
2023-06-16T17:06:54.270Z,4.60
2023-06-16T17:09:22.544Z,4.03
2023-06-16T17:11:50.878Z,3.25
2023-06-16T17:14:19.016Z,4.35
2023-06-16T17:16:47.270Z,6.30
2023-06-16T17:19:15.444Z,5.07
2023-06-16T17:21:45.048Z,5.70
2023-06-16T17:24:13.378Z,3.60
2023-06-16T17:26:41.996Z,3.42
2023-06-16T17:29:10.297Z,3.95
2023-06-16T17:31:38.636Z,2.65
2023-06-16T17:34:06.915Z,2.88
2023-06-16T17:36:35.199Z,3.38
2023-06-16T17:39:05.293Z,4.85
2023-06-16T17:41:36.130Z,3.55
2023-06-16T17:44:05.569Z,3.30
2023-06-16T17:46:36.177Z,5.22
2023-06-16T17:49:05.636Z,3.63
2023-06-16T17:51:36.178Z,5.38
2023-06-16T17:54:06.462Z,5.00
2023-06-16T17:56:34.760Z,3.35
2023-06-16T17:59:03.278Z,3.95
2023-06-16T18:01:32.147Z,4.22
2023-06-16T18:06:55.643Z,3.08
2023-06-16T18:09:25.227Z,3.78
2023-06-16T18:11:53.602Z,2.85
2023-06-16T18:14:21.847Z,4.25
2023-06-16T18:16:50.150Z,2.95
2023-06-16T18:19:18.468Z,7.72
2023-06-16T18:21:46.875Z,6.68
2023-06-16T18:24:15.313Z,2.80
2023-06-16T18:26:45.110Z,3.10
2023-06-16T18:29:13.439Z,3.95
2023-06-16T18:31:42.534Z,3.88
2023-06-16T18:34:11.367Z,6.38
2023-06-16T18:36:42.297Z,2.75
2023-06-16T18:39:14.331Z,3.10
2023-06-16T18:41:48.371Z,3.85
2023-06-16T18:44:18.118Z,4.03
2023-06-16T18:46:46.938Z,4.72
2023-06-16T18:49:15.224Z,2.97
2023-06-16T18:51:43.526Z,4.18
2023-06-16T18:54:11.875Z,3.40
2023-06-16T18:56:40.470Z,4.28
2023-06-16T18:59:10.010Z,5.85
2023-06-16T19:01:39.234Z,3.10
2023-06-16T19:04:07.715Z,6.00
2023-06-16T19:06:38.072Z,3.17
2023-06-16T19:09:06.362Z,3.60
2023-06-16T19:11:34.637Z,4.72
2023-06-16T19:14:02.892Z,4.28
2023-06-16T19:16:32.697Z,3.10
2023-06-16T19:19:01.496Z,3.67
2023-06-16T19:21:29.764Z,3.15
2023-06-16T19:23:58.014Z,4.07
2023-06-16T19:26:26.278Z,3.58
2023-06-16T19:28:54.605Z,3.75
2023-06-16T19:31:24.640Z,7.03
2023-06-16T19:33:55.234Z,3.33
2023-06-16T19:36:23.815Z,3.85
2023-06-16T19:38:53.606Z,4.10
2023-06-16T19:41:25.425Z,5.90
2023-06-16T19:43:53.662Z,3.30
2023-06-16T19:46:22.193Z,5.07
2023-06-16T19:48:51.781Z,4.82
2023-06-16T19:51:21.537Z,4.32
2023-06-16T19:53:49.765Z,3.30
2023-06-16T19:56:18.295Z,6.25
2023-06-16T19:58:46.572Z,4.53
2023-06-16T20:01:40.824Z,4.30
2023-06-16T20:04:23.472Z,4.90
2023-06-16T20:06:57.080Z,3.45
2023-06-16T20:09:26.155Z,2.67
2023-06-16T20:11:55.211Z,5.72
2023-06-16T20:14:23.579Z,4.57
2023-06-16T20:16:51.956Z,5.55
2023-06-16T20:19:21.814Z,4.45
2023-06-16T20:21:50.239Z,3.65
2023-06-16T20:24:19.959Z,5.78
2023-06-16T20:26:48.587Z,3.58
2023-06-16T20:29:16.859Z,4.40
2023-06-16T20:31:45.093Z,6.70
2023-06-16T20:34:13.341Z,4.18
2023-06-16T20:36:46.062Z,7.07
2023-06-16T20:39:14.943Z,4.55
2023-06-16T20:41:44.598Z,3.92
2023-06-16T20:44:13.794Z,3.90
2023-06-16T20:46:43.699Z,3.55
2023-06-16T20:49:12.126Z,4.20
2023-06-16T20:51:41.326Z,4.35
2023-06-16T20:54:09.617Z,5.07
2023-06-16T20:56:37.875Z,4.65
2023-06-16T20:59:08.596Z,8.50
2023-06-16T21:01:41.198Z,5.88
2023-06-16T21:04:12.655Z,3.38
2023-06-16T21:06:41.709Z,4.22
2023-06-16T21:09:10.753Z,6.97
2023-06-16T21:11:40.099Z,5.90
2023-06-16T21:14:10.723Z,3.90
2023-06-16T21:16:39.981Z,7.20
2023-06-16T21:19:08.283Z,5.45
2023-06-16T21:21:36.535Z,6.05
2023-06-16T21:24:07.126Z,7.80
2023-06-16T21:26:36.111Z,6.63
2023-06-16T21:29:04.528Z,4.20
2023-06-16T21:31:34.091Z,6.07
2023-06-16T21:34:02.402Z,5.88
2023-06-16T21:36:30.670Z,5.38
2023-06-16T21:38:59.459Z,5.22
2023-06-16T21:41:28.094Z,3.85
2023-06-16T21:43:56.348Z,3.47
2023-06-16T21:46:25.074Z,3.33
2023-06-16T21:48:54.619Z,3.33
2023-06-16T21:51:23.118Z,3.38
2023-06-16T21:53:51.404Z,5.07
2023-06-16T21:56:20.261Z,5.72
2023-06-16T21:58:48.502Z,3.90
2023-06-16T22:01:16.817Z,3.53
2023-06-16T22:04:12.278Z,5.00
2023-06-16T22:06:42.696Z,4.25
2023-06-16T22:09:11.512Z,7.90
2023-06-16T22:11:40.063Z,5.60
2023-06-16T22:14:08.915Z,5.00
2023-06-16T22:16:37.445Z,6.10
2023-06-16T22:19:05.768Z,3.72
2023-06-16T22:21:35.432Z,7.35
2023-06-16T22:24:03.802Z,3.85
2023-06-16T22:26:33.688Z,4.05
2023-06-16T22:29:01.978Z,4.82
2023-06-16T22:31:30.246Z,4.28
2023-06-16T22:33:58.494Z,6.03
2023-06-16T22:36:26.712Z,3.47
2023-06-16T22:38:56.549Z,7.40
2023-06-16T22:41:24.817Z,4.03
2023-06-16T22:43:54.140Z,3.83
2023-06-16T22:46:22.675Z,6.07
2023-06-16T22:48:52.061Z,4.47
2023-06-16T22:51:20.452Z,4.22
2023-06-16T22:53:48.770Z,4.97
2023-06-16T22:56:18.883Z,4.28
2023-06-16T22:58:47.157Z,7.78
2023-06-16T23:01:15.984Z,7.22
2023-06-16T23:03:44.344Z,4.93
2023-06-16T23:06:12.613Z,3.80
2023-06-16T23:08:40.998Z,7.90
2023-06-16T23:11:09.226Z,4.15
2023-06-16T23:13:38.855Z,4.82
2023-06-16T23:16:07.862Z,4.32
2023-06-16T23:18:36.634Z,4.95
2023-06-16T23:21:05.083Z,6.72
2023-06-16T23:23:33.311Z,5.25
2023-06-16T23:26:02.860Z,4.68
2023-06-16T23:28:31.130Z,7.10
2023-06-16T23:31:02.260Z,4.45
2023-06-16T23:33:30.787Z,4.07
2023-06-16T23:35:59.402Z,5.53
2023-06-16T23:38:27.636Z,4.72
2023-06-16T23:40:56.018Z,4.95
2023-06-16T23:43:24.516Z,6.25
2023-06-16T23:45:54.011Z,6.45
2023-06-16T23:48:23.876Z,4.50
2023-06-16T23:50:52.154Z,6.10
2023-06-16T23:53:21.887Z,4.20
2023-06-16T23:55:50.262Z,4.43
2023-06-16T23:58:18.475Z,4.30
